sensor_id;sensor_type;location;lat;lon;timestamp;P1;durP1;ratioP1;P2;durP2;ratioP2
71975;SDS011;68326;52.124;5.424;2023-07-29T00:00:02;3.67;;;0.70;;
71975;SDS011;68326;52.124;5.424;2023-07-29T00:02:29;3.03;;;0.70;;
71975;SDS011;68326;52.124;5.424;2023-07-29T00:04:57;2.58;;;0.75;;
71975;SDS011;68326;52.124;5.424;2023-07-29T00:07:23;2.28;;;0.80;;
71975;SDS011;68326;52.124;5.424;2023-07-29T00:09:50;1.40;;;0.60;;
71975;SDS011;68326;52.124;5.424;2023-07-29T00:12:16;2.38;;;0.70;;
71975;SDS011;68326;52.124;5.424;2023-07-29T00:14:43;1.52;;;0.60;;
71975;SDS011;68326;52.124;5.424;2023-07-29T00:17:09;5.35;;;0.88;;
71975;SDS011;68326;52.124;5.424;2023-07-29T00:19:36;1.98;;;0.60;;
71975;SDS011;68326;52.124;5.424;2023-07-29T00:22:02;1.10;;;0.70;;
71975;SDS011;68326;52.124;5.424;2023-07-29T00:24:30;4.32;;;0.57;;
71975;SDS011;68326;52.124;5.424;2023-07-29T00:26:56;2.47;;;0.70;;
71975;SDS011;68326;52.124;5.424;2023-07-29T00:29:23;2.20;;;0.73;;
71975;SDS011;68326;52.124;5.424;2023-07-29T00:31:49;1.00;;;0.60;;
71975;SDS011;68326;52.124;5.424;2023-07-29T00:34:16;2.07;;;0.97;;
71975;SDS011;68326;52.124;5.424;2023-07-29T00:36:45;0.73;;;0.40;;
71975;SDS011;68326;52.124;5.424;2023-07-29T00:39:12;4.30;;;0.73;;
71975;SDS011;68326;52.124;5.424;2023-07-29T00:41:39;2.85;;;0.70;;
71975;SDS011;68326;52.124;5.424;2023-07-29T00:44:06;2.08;;;0.55;;
71975;SDS011;68326;52.124;5.424;2023-07-29T00:46:33;1.73;;;0.70;;
71975;SDS011;68326;52.124;5.424;2023-07-29T00:49:01;2.50;;;0.60;;
71975;SDS011;68326;52.124;5.424;2023-07-29T00:51:28;1.95;;;0.60;;
71975;SDS011;68326;52.124;5.424;2023-07-29T00:53:54;1.77;;;0.50;;
71975;SDS011;68326;52.124;5.424;2023-07-29T00:56:21;3.47;;;0.60;;
71975;SDS011;68326;52.124;5.424;2023-07-29T00:58:48;3.67;;;0.60;;
71975;SDS011;68326;52.124;5.424;2023-07-29T01:01:14;3.00;;;0.70;;
71975;SDS011;68326;52.124;5.424;2023-07-29T01:03:41;1.85;;;0.73;;
71975;SDS011;68326;52.124;5.424;2023-07-29T01:09:33;1.88;;;0.45;;
71975;SDS011;68326;52.124;5.424;2023-07-29T01:12:08;3.03;;;0.50;;
71975;SDS011;68326;52.124;5.424;2023-07-29T01:17:12;2.30;;;0.63;;
71975;SDS011;68326;52.124;5.424;2023-07-29T01:19:55;1.77;;;0.82;;
71975;SDS011;68326;52.124;5.424;2023-07-29T01:22:30;2.05;;;0.65;;
71975;SDS011;68326;52.124;5.424;2023-07-29T01:24:58;3.33;;;0.60;;
71975;SDS011;68326;52.124;5.424;2023-07-29T01:27:25;3.88;;;0.80;;
71975;SDS011;68326;52.124;5.424;2023-07-29T01:29:52;2.30;;;0.75;;
71975;SDS011;68326;52.124;5.424;2023-07-29T01:35:03;2.97;;;0.75;;
71975;SDS011;68326;52.124;5.424;2023-07-29T01:38:03;3.47;;;1.13;;
71975;SDS011;68326;52.124;5.424;2023-07-29T01:40:31;3.78;;;1.20;;
71975;SDS011;68326;52.124;5.424;2023-07-29T01:42:59;2.05;;;1.35;;
71975;SDS011;68326;52.124;5.424;2023-07-29T01:45:26;1.98;;;0.77;;
71975;SDS011;68326;52.124;5.424;2023-07-29T01:47:52;3.25;;;0.90;;
71975;SDS011;68326;52.124;5.424;2023-07-29T01:50:19;2.10;;;1.20;;
71975;SDS011;68326;52.124;5.424;2023-07-29T01:52:46;2.50;;;1.27;;
71975;SDS011;68326;52.124;5.424;2023-07-29T01:55:12;2.97;;;0.90;;
71975;SDS011;68326;52.124;5.424;2023-07-29T01:57:39;4.05;;;1.00;;
71975;SDS011;68326;52.124;5.424;2023-07-29T02:00:06;3.13;;;1.00;;
71975;SDS011;68326;52.124;5.424;2023-07-29T02:02:33;2.40;;;1.00;;
71975;SDS011;68326;52.124;5.424;2023-07-29T02:05:00;3.83;;;1.42;;
71975;SDS011;68326;52.124;5.424;2023-07-29T02:07:26;4.07;;;1.50;;
71975;SDS011;68326;52.124;5.424;2023-07-29T02:09:53;4.55;;;1.60;;
71975;SDS011;68326;52.124;5.424;2023-07-29T02:12:20;2.38;;;1.30;;
71975;SDS011;68326;52.124;5.424;2023-07-29T02:14:46;2.70;;;1.47;;
71975;SDS011;68326;52.124;5.424;2023-07-29T02:17:13;5.80;;;1.90;;
71975;SDS011;68326;52.124;5.424;2023-07-29T02:19:39;3.42;;;1.50;;
71975;SDS011;68326;52.124;5.424;2023-07-29T02:22:06;3.35;;;1.77;;
71975;SDS011;68326;52.124;5.424;2023-07-29T02:24:32;5.68;;;1.60;;
71975;SDS011;68326;52.124;5.424;2023-07-29T02:26:59;3.47;;;1.47;;
71975;SDS011;68326;52.124;5.424;2023-07-29T02:29:25;4.68;;;1.88;;
71975;SDS011;68326;52.124;5.424;2023-07-29T02:31:52;4.15;;;1.95;;
71975;SDS011;68326;52.124;5.424;2023-07-29T02:34:18;5.40;;;2.00;;
71975;SDS011;68326;52.124;5.424;2023-07-29T02:36:45;5.25;;;2.10;;
71975;SDS011;68326;52.124;5.424;2023-07-29T02:39:11;4.17;;;2.10;;
71975;SDS011;68326;52.124;5.424;2023-07-29T02:41:38;4.82;;;2.20;;
71975;SDS011;68326;52.124;5.424;2023-07-29T02:44:05;6.45;;;2.30;;
71975;SDS011;68326;52.124;5.424;2023-07-29T02:46:31;5.47;;;2.70;;
71975;SDS011;68326;52.124;5.424;2023-07-29T02:48:58;4.55;;;2.60;;
71975;SDS011;68326;52.124;5.424;2023-07-29T02:51:25;6.77;;;2.40;;
71975;SDS011;68326;52.124;5.424;2023-07-29T02:53:51;7.38;;;2.78;;
71975;SDS011;68326;52.124;5.424;2023-07-29T02:56:18;4.63;;;2.38;;
71975;SDS011;68326;52.124;5.424;2023-07-29T02:58:45;6.88;;;2.42;;
71975;SDS011;68326;52.124;5.424;2023-07-29T03:01:11;5.68;;;2.58;;
71975;SDS011;68326;52.124;5.424;2023-07-29T03:03:38;5.07;;;2.50;;
71975;SDS011;68326;52.124;5.424;2023-07-29T03:06:06;4.55;;;2.45;;
71975;SDS011;68326;52.124;5.424;2023-07-29T03:08:35;3.88;;;2.30;;
71975;SDS011;68326;52.124;5.424;2023-07-29T03:11:06;5.57;;;2.63;;
71975;SDS011;68326;52.124;5.424;2023-07-29T03:13:36;5.93;;;2.25;;
71975;SDS011;68326;52.124;5.424;2023-07-29T03:18:37;3.42;;;2.20;;
71975;SDS011;68326;52.124;5.424;2023-07-29T03:21:04;5.18;;;2.20;;
71975;SDS011;68326;52.124;5.424;2023-07-29T03:23:31;4.65;;;2.75;;
71975;SDS011;68326;52.124;5.424;2023-07-29T03:25:59;5.68;;;2.40;;
71975;SDS011;68326;52.124;5.424;2023-07-29T03:28:27;5.93;;;2.40;;
71975;SDS011;68326;52.124;5.424;2023-07-29T03:30:58;3.60;;;2.30;;
71975;SDS011;68326;52.124;5.424;2023-07-29T03:33:25;4.60;;;1.95;;
71975;SDS011;68326;52.124;5.424;2023-07-29T03:35:52;6.38;;;2.65;;
71975;SDS011;68326;52.124;5.424;2023-07-29T03:38:19;5.10;;;2.35;;
71975;SDS011;68326;52.124;5.424;2023-07-29T03:40:46;3.63;;;1.83;;
71975;SDS011;68326;52.124;5.424;2023-07-29T03:43:13;6.72;;;2.30;;
71975;SDS011;68326;52.124;5.424;2023-07-29T03:45:40;6.20;;;2.40;;
71975;SDS011;68326;52.124;5.424;2023-07-29T03:48:07;5.53;;;2.00;;
71975;SDS011;68326;52.124;5.424;2023-07-29T03:50:34;4.72;;;2.10;;
71975;SDS011;68326;52.124;5.424;2023-07-29T03:53:03;6.40;;;2.03;;
71975;SDS011;68326;52.124;5.424;2023-07-29T03:55:30;6.28;;;2.53;;
71975;SDS011;68326;52.124;5.424;2023-07-29T03:57:57;4.05;;;2.13;;
71975;SDS011;68326;52.124;5.424;2023-07-29T04:00:25;3.78;;;1.95;;
71975;SDS011;68326;52.124;5.424;2023-07-29T04:02:52;5.15;;;1.98;;
71975;SDS011;68326;52.124;5.424;2023-07-29T04:05:18;5.57;;;2.00;;
71975;SDS011;68326;52.124;5.424;2023-07-29T04:07:45;5.20;;;1.80;;
71975;SDS011;68326;52.124;5.424;2023-07-29T04:10:12;3.58;;;1.52;;
71975;SDS011;68326;52.124;5.424;2023-07-29T04:12:39;3.03;;;1.30;;
71975;SDS011;68326;52.124;5.424;2023-07-29T04:15:06;3.90;;;1.38;;
71975;SDS011;68326;52.124;5.424;2023-07-29T04:17:32;3.00;;;1.40;;
71975;SDS011;68326;52.124;5.424;2023-07-29T04:19:59;2.55;;;1.40;;
71975;SDS011;68326;52.124;5.424;2023-07-29T04:22:27;3.08;;;1.40;;
71975;SDS011;68326;52.124;5.424;2023-07-29T04:24:53;5.18;;;1.35;;
71975;SDS011;68326;52.124;5.424;2023-07-29T04:27:20;2.72;;;1.05;;
71975;SDS011;68326;52.124;5.424;2023-07-29T04:29:46;2.17;;;1.10;;
71975;SDS011;68326;52.124;5.424;2023-07-29T04:32:13;3.33;;;1.25;;
71975;SDS011;68326;52.124;5.424;2023-07-29T04:34:39;2.33;;;0.90;;
71975;SDS011;68326;52.124;5.424;2023-07-29T04:37:06;1.98;;;0.98;;
71975;SDS011;68326;52.124;5.424;2023-07-29T04:39:32;3.28;;;0.80;;
71975;SDS011;68326;52.124;5.424;2023-07-29T04:41:59;2.30;;;0.87;;
71975;SDS011;68326;52.124;5.424;2023-07-29T04:44:27;3.38;;;1.10;;
71975;SDS011;68326;52.124;5.424;2023-07-29T04:46:53;3.10;;;1.10;;
71975;SDS011;68326;52.124;5.424;2023-07-29T04:49:20;5.30;;;1.02;;
71975;SDS011;68326;52.124;5.424;2023-07-29T04:51:46;3.97;;;1.30;;
71975;SDS011;68326;52.124;5.424;2023-07-29T04:54:13;2.73;;;0.90;;
71975;SDS011;68326;52.124;5.424;2023-07-29T04:56:39;3.03;;;1.10;;
71975;SDS011;68326;52.124;5.424;2023-07-29T04:59:06;2.42;;;0.82;;
71975;SDS011;68326;52.124;5.424;2023-07-29T05:01:34;2.15;;;0.90;;
71975;SDS011;68326;52.124;5.424;2023-07-29T05:04:01;2.00;;;0.90;;
71975;SDS011;68326;52.124;5.424;2023-07-29T05:06:28;3.10;;;1.10;;
71975;SDS011;68326;52.124;5.424;2023-07-29T05:08:56;2.85;;;0.98;;
71975;SDS011;68326;52.124;5.424;2023-07-29T05:11:24;3.28;;;1.00;;
71975;SDS011;68326;52.124;5.424;2023-07-29T05:13:51;2.30;;;0.88;;
71975;SDS011;68326;52.124;5.424;2023-07-29T05:16:18;2.67;;;1.27;;
71975;SDS011;68326;52.124;5.424;2023-07-29T05:18:44;2.00;;;0.60;;
71975;SDS011;68326;52.124;5.424;2023-07-29T05:21:11;3.05;;;1.23;;
71975;SDS011;68326;52.124;5.424;2023-07-29T05:23:40;2.25;;;1.02;;
71975;SDS011;68326;52.124;5.424;2023-07-29T05:26:07;4.97;;;1.35;;
71975;SDS011;68326;52.124;5.424;2023-07-29T05:28:33;2.45;;;0.90;;
71975;SDS011;68326;52.124;5.424;2023-07-29T05:31:00;4.30;;;1.20;;
71975;SDS011;68326;52.124;5.424;2023-07-29T05:33:27;3.40;;;1.10;;
71975;SDS011;68326;52.124;5.424;2023-07-29T05:35:54;4.15;;;1.20;;
71975;SDS011;68326;52.124;5.424;2023-07-29T05:38:21;3.70;;;1.20;;
71975;SDS011;68326;52.124;5.424;2023-07-29T05:40:48;3.55;;;1.38;;
71975;SDS011;68326;52.124;5.424;2023-07-29T05:43:15;3.30;;;1.40;;
71975;SDS011;68326;52.124;5.424;2023-07-29T05:45:41;3.85;;;1.50;;
71975;SDS011;68326;52.124;5.424;2023-07-29T05:48:08;6.10;;;1.65;;
71975;SDS011;68326;52.124;5.424;2023-07-29T05:50:34;3.45;;;1.48;;
71975;SDS011;68326;52.124;5.424;2023-07-29T05:53:01;3.58;;;1.50;;
71975;SDS011;68326;52.124;5.424;2023-07-29T05:55:27;4.87;;;1.47;;
71975;SDS011;68326;52.124;5.424;2023-07-29T05:57:54;4.38;;;1.77;;
71975;SDS011;68326;52.124;5.424;2023-07-29T06:00:21;4.80;;;2.13;;
71975;SDS011;68326;52.124;5.424;2023-07-29T06:02:47;4.38;;;1.48;;
71975;SDS011;68326;52.124;5.424;2023-07-29T06:05:14;3.00;;;1.48;;
71975;SDS011;68326;52.124;5.424;2023-07-29T06:07:40;5.10;;;2.07;;
71975;SDS011;68326;52.124;5.424;2023-07-29T06:10:11;7.40;;;1.75;;
71975;SDS011;68326;52.124;5.424;2023-07-29T06:12:39;3.88;;;1.70;;
71975;SDS011;68326;52.124;5.424;2023-07-29T06:15:06;5.18;;;2.03;;
71975;SDS011;68326;52.124;5.424;2023-07-29T06:17:33;4.05;;;2.10;;
71975;SDS011;68326;52.124;5.424;2023-07-29T06:19:59;5.03;;;1.80;;
71975;SDS011;68326;52.124;5.424;2023-07-29T06:22:26;3.95;;;1.88;;
71975;SDS011;68326;52.124;5.424;2023-07-29T06:24:53;5.65;;;1.90;;
71975;SDS011;68326;52.124;5.424;2023-07-29T06:27:19;5.85;;;2.13;;
71975;SDS011;68326;52.124;5.424;2023-07-29T06:29:45;4.97;;;2.30;;
71975;SDS011;68326;52.124;5.424;2023-07-29T06:32:12;6.40;;;1.97;;
71975;SDS011;68326;52.124;5.424;2023-07-29T06:34:38;5.22;;;1.90;;
71975;SDS011;68326;52.124;5.424;2023-07-29T06:37:05;6.30;;;2.22;;
71975;SDS011;68326;52.124;5.424;2023-07-29T06:39:33;7.38;;;1.80;;
71975;SDS011;68326;52.124;5.424;2023-07-29T06:41:59;5.47;;;2.58;;
71975;SDS011;68326;52.124;5.424;2023-07-29T06:44:26;6.30;;;2.30;;
71975;SDS011;68326;52.124;5.424;2023-07-29T06:46:52;4.15;;;1.95;;
71975;SDS011;68326;52.124;5.424;2023-07-29T06:49:19;4.30;;;2.50;;
71975;SDS011;68326;52.124;5.424;2023-07-29T06:51:45;5.25;;;2.42;;
71975;SDS011;68326;52.124;5.424;2023-07-29T06:54:12;6.38;;;2.33;;
71975;SDS011;68326;52.124;5.424;2023-07-29T06:56:38;4.97;;;2.40;;
71975;SDS011;68326;52.124;5.424;2023-07-29T06:59:05;4.18;;;2.60;;
71975;SDS011;68326;52.124;5.424;2023-07-29T07:01:31;7.03;;;2.42;;
71975;SDS011;68326;52.124;5.424;2023-07-29T07:03:58;6.25;;;3.33;;
71975;SDS011;68326;52.124;5.424;2023-07-29T07:06:25;6.13;;;3.05;;
71975;SDS011;68326;52.124;5.424;2023-07-29T07:08:51;5.23;;;3.00;;
71975;SDS011;68326;52.124;5.424;2023-07-29T07:11:18;4.95;;;3.13;;
71975;SDS011;68326;52.124;5.424;2023-07-29T07:13:45;6.32;;;3.00;;
71975;SDS011;68326;52.124;5.424;2023-07-29T07:16:11;5.30;;;3.30;;
71975;SDS011;68326;52.124;5.424;2023-07-29T07:18:38;5.28;;;3.15;;
71975;SDS011;68326;52.124;5.424;2023-07-29T07:21:05;4.83;;;2.60;;
71975;SDS011;68326;52.124;5.424;2023-07-29T07:23:31;4.18;;;2.90;;
71975;SDS011;68326;52.124;5.424;2023-07-29T07:25:57;7.40;;;2.90;;
71975;SDS011;68326;52.124;5.424;2023-07-29T07:28:24;4.97;;;2.58;;
71975;SDS011;68326;52.124;5.424;2023-07-29T07:30:51;5.80;;;2.67;;
71975;SDS011;68326;52.124;5.424;2023-07-29T07:33:17;7.23;;;3.47;;
71975;SDS011;68326;52.124;5.424;2023-07-29T07:35:44;6.38;;;3.00;;
71975;SDS011;68326;52.124;5.424;2023-07-29T07:38:11;5.40;;;2.80;;
71975;SDS011;68326;52.124;5.424;2023-07-29T07:40:37;6.53;;;3.00;;
71975;SDS011;68326;52.124;5.424;2023-07-29T07:43:03;5.63;;;2.85;;
71975;SDS011;68326;52.124;5.424;2023-07-29T07:45:31;5.50;;;3.17;;
71975;SDS011;68326;52.124;5.424;2023-07-29T07:47:58;6.72;;;2.70;;
71975;SDS011;68326;52.124;5.424;2023-07-29T07:50:25;5.25;;;3.10;;
71975;SDS011;68326;52.124;5.424;2023-07-29T07:52:54;5.45;;;3.17;;
71975;SDS011;68326;52.124;5.424;2023-07-29T07:55:21;5.55;;;3.35;;
71975;SDS011;68326;52.124;5.424;2023-07-29T07:57:47;3.80;;;3.00;;
71975;SDS011;68326;52.124;5.424;2023-07-29T08:00:14;5.40;;;3.58;;
71975;SDS011;68326;52.124;5.424;2023-07-29T08:02:43;5.30;;;3.30;;
71975;SDS011;68326;52.124;5.424;2023-07-29T08:05:10;6.78;;;3.40;;
71975;SDS011;68326;52.124;5.424;2023-07-29T08:07:36;4.15;;;3.60;;
71975;SDS011;68326;52.124;5.424;2023-07-29T08:10:03;3.93;;;3.00;;
71975;SDS011;68326;52.124;5.424;2023-07-29T08:12:30;5.07;;;2.88;;
71975;SDS011;68326;52.124;5.424;2023-07-29T08:14:56;3.63;;;2.80;;
71975;SDS011;68326;52.124;5.424;2023-07-29T08:17:23;4.90;;;2.95;;
71975;SDS011;68326;52.124;5.424;2023-07-29T08:19:49;5.88;;;3.10;;
71975;SDS011;68326;52.124;5.424;2023-07-29T08:22:16;4.20;;;2.93;;
71975;SDS011;68326;52.124;5.424;2023-07-29T08:24:43;4.78;;;2.60;;
71975;SDS011;68326;52.124;5.424;2023-07-29T08:27:09;5.30;;;2.58;;
71975;SDS011;68326;52.124;5.424;2023-07-29T08:29:36;4.95;;;2.33;;
71975;SDS011;68326;52.124;5.424;2023-07-29T08:32:03;3.58;;;2.47;;
71975;SDS011;68326;52.124;5.424;2023-07-29T08:34:29;3.97;;;2.40;;
71975;SDS011;68326;52.124;5.424;2023-07-29T08:36:56;3.75;;;2.50;;
71975;SDS011;68326;52.124;5.424;2023-07-29T08:39:22;3.35;;;2.40;;
71975;SDS011;68326;52.124;5.424;2023-07-29T08:44:23;2.50;;;2.25;;
71975;SDS011;68326;52.124;5.424;2023-07-29T08:46:56;4.03;;;2.10;;
71975;SDS011;68326;52.124;5.424;2023-07-29T08:49:23;2.55;;;2.35;;
71975;SDS011;68326;52.124;5.424;2023-07-29T08:51:51;4.45;;;2.10;;
71975;SDS011;68326;52.124;5.424;2023-07-29T08:54:19;2.90;;;2.10;;
71975;SDS011;68326;52.124;5.424;2023-07-29T08:56:46;5.30;;;2.05;;
71975;SDS011;68326;52.124;5.424;2023-07-29T08:59:13;5.13;;;1.93;;
71975;SDS011;68326;52.124;5.424;2023-07-29T09:01:39;2.25;;;1.80;;
71975;SDS011;68326;52.124;5.424;2023-07-29T09:04:07;2.20;;;2.00;;
71975;SDS011;68326;52.124;5.424;2023-07-29T09:06:34;3.42;;;1.80;;
71975;SDS011;68326;52.124;5.424;2023-07-29T09:09:02;3.03;;;1.90;;
71975;SDS011;68326;52.124;5.424;2023-07-29T09:11:29;2.17;;;1.97;;
71975;SDS011;68326;52.124;5.424;2023-07-29T09:13:56;3.97;;;2.30;;
71975;SDS011;68326;52.124;5.424;2023-07-29T09:16:23;4.03;;;2.22;;
71975;SDS011;68326;52.124;5.424;2023-07-29T09:18:51;4.07;;;2.65;;
71975;SDS011;68326;52.124;5.424;2023-07-29T09:21:24;4.25;;;2.60;;
71975;SDS011;68326;52.124;5.424;2023-07-29T09:23:53;2.63;;;2.37;;
71975;SDS011;68326;52.124;5.424;2023-07-29T09:26:26;4.13;;;2.92;;
71975;SDS011;68326;52.124;5.424;2023-07-29T09:28:54;6.40;;;2.72;;
71975;SDS011;68326;52.124;5.424;2023-07-29T09:31:24;7.38;;;3.05;;
71975;SDS011;68326;52.124;5.424;2023-07-29T09:34:01;2.83;;;2.35;;
71975;SDS011;68326;52.124;5.424;2023-07-29T09:36:30;4.10;;;2.60;;
71975;SDS011;68326;52.124;5.424;2023-07-29T09:38:58;4.68;;;2.50;;
71975;SDS011;68326;52.124;5.424;2023-07-29T09:41:28;2.90;;;2.20;;
71975;SDS011;68326;52.124;5.424;2023-07-29T09:43:58;4.00;;;2.50;;
71975;SDS011;68326;52.124;5.424;2023-07-29T09:46:34;4.68;;;2.40;;
71975;SDS011;68326;52.124;5.424;2023-07-29T09:49:04;3.03;;;2.30;;
71975;SDS011;68326;52.124;5.424;2023-07-29T09:51:36;5.57;;;2.97;;
71975;SDS011;68326;52.124;5.424;2023-07-29T09:54:06;3.45;;;2.28;;
71975;SDS011;68326;52.124;5.424;2023-07-29T09:56:33;5.97;;;2.75;;
71975;SDS011;68326;52.124;5.424;2023-07-29T09:59:05;4.30;;;3.10;;
71975;SDS011;68326;52.124;5.424;2023-07-29T10:01:31;3.87;;;2.87;;
71975;SDS011;68326;52.124;5.424;2023-07-29T10:03:58;7.60;;;2.72;;
71975;SDS011;68326;52.124;5.424;2023-07-29T10:06:28;4.13;;;2.90;;
71975;SDS011;68326;52.124;5.424;2023-07-29T10:08:55;3.83;;;3.22;;
71975;SDS011;68326;52.124;5.424;2023-07-29T10:11:22;10.02;;;3.70;;
71975;SDS011;68326;52.124;5.424;2023-07-29T10:13:51;4.70;;;3.57;;
71975;SDS011;68326;52.124;5.424;2023-07-29T10:16:32;7.03;;;3.85;;
71975;SDS011;68326;52.124;5.424;2023-07-29T10:18:58;4.03;;;3.42;;
71975;SDS011;68326;52.124;5.424;2023-07-29T10:21:26;5.15;;;3.70;;
71975;SDS011;68326;52.124;5.424;2023-07-29T10:23:53;4.03;;;3.63;;
71975;SDS011;68326;52.124;5.424;2023-07-29T10:26:27;5.13;;;3.40;;
71975;SDS011;68326;52.124;5.424;2023-07-29T10:28:56;5.30;;;3.58;;
71975;SDS011;68326;52.124;5.424;2023-07-29T10:31:31;4.70;;;4.05;;
71975;SDS011;68326;52.124;5.424;2023-07-29T10:33:58;4.65;;;3.85;;
71975;SDS011;68326;52.124;5.424;2023-07-29T10:36:25;4.30;;;3.90;;
71975;SDS011;68326;52.124;5.424;2023-07-29T10:38:52;5.23;;;4.10;;
71975;SDS011;68326;52.124;5.424;2023-07-29T10:41:19;6.65;;;4.20;;
71975;SDS011;68326;52.124;5.424;2023-07-29T10:43:45;4.95;;;4.15;;
71975;SDS011;68326;52.124;5.424;2023-07-29T10:46:19;6.93;;;3.90;;
71975;SDS011;68326;52.124;5.424;2023-07-29T10:53:56;6.35;;;4.50;;
71975;SDS011;68326;52.124;5.424;2023-07-29T10:56:34;4.03;;;3.33;;
71975;SDS011;68326;52.124;5.424;2023-07-29T10:59:23;6.20;;;4.10;;
71975;SDS011;68326;52.124;5.424;2023-07-29T11:01:59;5.18;;;3.80;;
71975;SDS011;68326;52.124;5.424;2023-07-29T11:04:27;2.37;;;2.17;;
71975;SDS011;68326;52.124;5.424;2023-07-29T11:15:26;2.63;;;1.70;;
71975;SDS011;68326;52.124;5.424;2023-07-29T11:17:54;2.77;;;1.23;;
71975;SDS011;68326;52.124;5.424;2023-07-29T11:20:22;1.25;;;0.80;;
71975;SDS011;68326;52.124;5.424;2023-07-29T11:22:50;2.17;;;1.20;;
71975;SDS011;68326;52.124;5.424;2023-07-29T11:25:17;1.40;;;0.93;;
71975;SDS011;68326;52.124;5.424;2023-07-29T11:27:45;1.88;;;0.68;;
71975;SDS011;68326;52.124;5.424;2023-07-29T11:30:13;2.37;;;0.83;;
71975;SDS011;68326;52.124;5.424;2023-07-29T11:32:43;1.70;;;1.00;;
71975;SDS011;68326;52.124;5.424;2023-07-29T11:35:12;1.83;;;0.80;;
71975;SDS011;68326;52.124;5.424;2023-07-29T11:37:43;3.40;;;1.05;;
71975;SDS011;68326;52.124;5.424;2023-07-29T11:40:13;1.92;;;0.50;;
71975;SDS011;68326;52.124;5.424;2023-07-29T11:42:44;1.53;;;0.70;;
71975;SDS011;68326;52.124;5.424;2023-07-29T11:45:12;1.35;;;0.80;;
71975;SDS011;68326;52.124;5.424;2023-07-29T11:47:43;1.20;;;0.60;;
71975;SDS011;68326;52.124;5.424;2023-07-29T11:50:11;1.50;;;0.70;;
71975;SDS011;68326;52.124;5.424;2023-07-29T11:52:44;2.60;;;0.70;;
71975;SDS011;68326;52.124;5.424;2023-07-29T11:55:12;3.40;;;0.77;;
71975;SDS011;68326;52.124;5.424;2023-07-29T11:57:41;2.42;;;0.85;;
71975;SDS011;68326;52.124;5.424;2023-07-29T12:00:08;1.60;;;0.75;;
71975;SDS011;68326;52.124;5.424;2023-07-29T12:02:38;3.15;;;0.80;;
71975;SDS011;68326;52.124;5.424;2023-07-29T12:05:06;2.83;;;0.90;;
71975;SDS011;68326;52.124;5.424;2023-07-29T12:07:34;2.07;;;0.83;;
71975;SDS011;68326;52.124;5.424;2023-07-29T12:10:02;1.95;;;0.80;;
71975;SDS011;68326;52.124;5.424;2023-07-29T12:12:29;2.33;;;0.98;;
71975;SDS011;68326;52.124;5.424;2023-07-29T12:14:56;1.77;;;1.10;;
71975;SDS011;68326;52.124;5.424;2023-07-29T12:17:23;3.03;;;1.00;;
71975;SDS011;68326;52.124;5.424;2023-07-29T12:19:49;2.73;;;1.30;;
71975;SDS011;68326;52.124;5.424;2023-07-29T12:22:20;2.92;;;1.63;;
71975;SDS011;68326;52.124;5.424;2023-07-29T12:24:47;2.92;;;1.30;;
71975;SDS011;68326;52.124;5.424;2023-07-29T12:27:17;3.70;;;1.50;;
71975;SDS011;68326;52.124;5.424;2023-07-29T12:29:44;2.17;;;1.40;;
71975;SDS011;68326;52.124;5.424;2023-07-29T12:32:12;2.63;;;1.30;;
71975;SDS011;68326;52.124;5.424;2023-07-29T12:34:40;2.20;;;1.88;;
71975;SDS011;68326;52.124;5.424;2023-07-29T12:37:06;4.07;;;1.55;;
71975;SDS011;68326;52.124;5.424;2023-07-29T12:39:34;1.75;;;1.00;;
71975;SDS011;68326;52.124;5.424;2023-07-29T12:42:06;2.30;;;1.30;;
71975;SDS011;68326;52.124;5.424;2023-07-29T12:44:33;1.63;;;1.07;;
71975;SDS011;68326;52.124;5.424;2023-07-29T12:47:01;2.00;;;1.23;;
71975;SDS011;68326;52.124;5.424;2023-07-29T12:49:29;3.30;;;1.00;;
71975;SDS011;68326;52.124;5.424;2023-07-29T12:51:56;1.70;;;1.20;;
71975;SDS011;68326;52.124;5.424;2023-07-29T12:54:26;4.05;;;1.30;;
71975;SDS011;68326;52.124;5.424;2023-07-29T12:56:53;1.60;;;1.00;;
71975;SDS011;68326;52.124;5.424;2023-07-29T12:59:19;1.52;;;0.98;;
71975;SDS011;68326;52.124;5.424;2023-07-29T13:01:46;2.28;;;1.10;;
71975;SDS011;68326;52.124;5.424;2023-07-29T13:04:12;1.65;;;0.80;;
71975;SDS011;68326;52.124;5.424;2023-07-29T13:06:39;1.80;;;0.75;;
71975;SDS011;68326;52.124;5.424;2023-07-29T13:09:06;2.20;;;1.00;;
71975;SDS011;68326;52.124;5.424;2023-07-29T13:11:33;1.33;;;0.80;;
71975;SDS011;68326;52.124;5.424;2023-07-29T13:13:59;2.30;;;0.90;;
71975;SDS011;68326;52.124;5.424;2023-07-29T13:16:30;2.67;;;0.98;;
71975;SDS011;68326;52.124;5.424;2023-07-29T13:18:57;1.40;;;0.88;;
71975;SDS011;68326;52.124;5.424;2023-07-29T13:21:23;1.13;;;0.70;;
71975;SDS011;68326;52.124;5.424;2023-07-29T13:23:50;1.42;;;0.70;;
71975;SDS011;68326;52.124;5.424;2023-07-29T13:26:17;1.40;;;0.75;;
71975;SDS011;68326;52.124;5.424;2023-07-29T13:28:44;1.65;;;0.80;;
71975;SDS011;68326;52.124;5.424;2023-07-29T13:31:11;1.45;;;0.82;;
71975;SDS011;68326;52.124;5.424;2023-07-29T13:33:37;0.90;;;0.60;;
71975;SDS011;68326;52.124;5.424;2023-07-29T13:36:05;0.88;;;0.65;;
71975;SDS011;68326;52.124;5.424;2023-07-29T13:38:31;1.45;;;0.70;;
71975;SDS011;68326;52.124;5.424;2023-07-29T13:40:58;1.50;;;0.80;;
71975;SDS011;68326;52.124;5.424;2023-07-29T13:43:25;1.98;;;0.63;;
71975;SDS011;68326;52.124;5.424;2023-07-29T13:45:51;2.33;;;0.80;;
71975;SDS011;68326;52.124;5.424;2023-07-29T13:48:18;1.20;;;0.70;;
71975;SDS011;68326;52.124;5.424;2023-07-29T13:50:46;2.13;;;1.00;;
71975;SDS011;68326;52.124;5.424;2023-07-29T13:53:12;1.27;;;0.75;;
71975;SDS011;68326;52.124;5.424;2023-07-29T13:55:39;1.20;;;0.70;;
71975;SDS011;68326;52.124;5.424;2023-07-29T13:58:05;1.40;;;0.83;;
71975;SDS011;68326;52.124;5.424;2023-07-29T14:00:32;2.25;;;1.00;;
71975;SDS011;68326;52.124;5.424;2023-07-29T14:02:59;1.50;;;0.90;;
71975;SDS011;68326;52.124;5.424;2023-07-29T14:05:25;1.30;;;1.05;;
71975;SDS011;68326;52.124;5.424;2023-07-29T14:07:52;3.38;;;0.93;;
71975;SDS011;68326;52.124;5.424;2023-07-29T14:10:18;2.47;;;1.03;;
71975;SDS011;68326;52.124;5.424;2023-07-29T14:12:45;1.70;;;1.10;;
71975;SDS011;68326;52.124;5.424;2023-07-29T14:15:11;2.28;;;1.02;;
71975;SDS011;68326;52.124;5.424;2023-07-29T14:17:38;1.23;;;0.82;;
71975;SDS011;68326;52.124;5.424;2023-07-29T14:20:04;1.42;;;1.00;;
71975;SDS011;68326;52.124;5.424;2023-07-29T14:22:32;1.47;;;0.80;;
71975;SDS011;68326;52.124;5.424;2023-07-29T14:24:58;2.00;;;1.00;;
71975;SDS011;68326;52.124;5.424;2023-07-29T14:27:26;2.28;;;1.10;;
71975;SDS011;68326;52.124;5.424;2023-07-29T14:29:53;3.72;;;1.30;;
71975;SDS011;68326;52.124;5.424;2023-07-29T14:32:19;1.48;;;0.80;;
71975;SDS011;68326;52.124;5.424;2023-07-29T14:34:49;1.63;;;0.90;;
71975;SDS011;68326;52.124;5.424;2023-07-29T14:37:15;2.10;;;0.80;;
71975;SDS011;68326;52.124;5.424;2023-07-29T14:39:42;1.38;;;0.90;;
71975;SDS011;68326;52.124;5.424;2023-07-29T14:42:08;2.30;;;0.85;;
71975;SDS011;68326;52.124;5.424;2023-07-29T14:44:35;1.20;;;0.88;;
71975;SDS011;68326;52.124;5.424;2023-07-29T14:47:01;1.67;;;1.00;;
71975;SDS011;68326;52.124;5.424;2023-07-29T14:49:28;1.83;;;0.80;;
71975;SDS011;68326;52.124;5.424;2023-07-29T14:51:54;1.00;;;0.70;;
71975;SDS011;68326;52.124;5.424;2023-07-29T14:54:21;1.25;;;0.60;;
71975;SDS011;68326;52.124;5.424;2023-07-29T14:56:48;1.15;;;0.55;;
71975;SDS011;68326;52.124;5.424;2023-07-29T14:59:14;1.20;;;0.60;;
71975;SDS011;68326;52.124;5.424;2023-07-29T15:01:41;1.38;;;0.52;;
71975;SDS011;68326;52.124;5.424;2023-07-29T15:04:07;1.77;;;0.60;;
71975;SDS011;68326;52.124;5.424;2023-07-29T15:06:34;1.88;;;0.50;;
71975;SDS011;68326;52.124;5.424;2023-07-29T15:09:01;1.27;;;0.50;;
71975;SDS011;68326;52.124;5.424;2023-07-29T15:11:27;1.20;;;0.30;;
71975;SDS011;68326;52.124;5.424;2023-07-29T15:13:54;1.38;;;0.50;;
71975;SDS011;68326;52.124;5.424;2023-07-29T15:16:22;0.82;;;0.50;;